Time;durP1;ratioP1;P1;durP2;ratioP2;P2;SDS_P1;SDS_P2;PMS_P1;PMS_P2;Temp;Humidity;BMP_temperature;BMP_pressure;BME280_temperature;BME280_humidity;BME280_pressure;Samples;Min_cycle;Max_cycle;Signal;HPM_P1;HPM_P2
2021/07/13 02:41:22;;;;;;;2.50;1.55;;;;;;;20.56;93.56;97983.03;5145407;23;104981;-75
2021/07/13 02:43:52;;;;;;;3.25;1.80;;;;;;;20.73;93.04;97974.56;4923544;28;105724;-76
2021/07/13 02:46:21;;;;;;;2.55;1.80;;;;;;;20.83;92.47;97971.53;4936595;28;104366;-75
2021/07/13 02:48:51;;;;;;;2.42;1.50;;;;;;;20.77;91.38;97980.38;4935581;28;103232;-75
2021/07/13 02:51:21;;;;;;;2.08;1.60;;;;;;;20.83;91.71;97976.91;4919864;28;104168;-75
2021/07/13 02:53:49;;;;;;;2.20;1.80;;;;;;;20.77;91.54;97964.28;4894513;28;103901;-75
2021/07/13 02:56:18;;;;;;;1.45;1.30;;;;;;;20.88;91.97;97953.03;4935322;28;104817;-75
2021/07/13 02:58:49;;;;;;;2.67;1.80;;;;;;;21.00;90.50;97942.56;4915516;28;103411;-74
2021/07/13 03:01:17;;;;;;;4.07;2.33;;;;;;;20.41;92.23;97907.97;4926663;28;103610;-74
2021/07/13 03:03:48;;;;;;;4.03;2.22;;;;;;;19.54;98.09;97884.88;4929391;28;105576;-76
2021/07/13 03:06:17;;;;;;;3.78;2.20;;;;;;;19.47;99.44;97879.47;4942098;28;104387;-75
2021/07/13 03:08:45;;;;;;;2.08;1.60;;;;;;;19.96;97.82;97890.34;4916074;28;103228;-75
2021/07/13 03:11:13;;;;;;;2.03;1.60;;;;;;;20.23;95.43;97897.69;4938567;28;102822;-75
2021/07/13 03:13:42;;;;;;;2.50;1.60;;;;;;;20.32;94.76;97889.53;4949446;28;104060;-75
2021/07/13 03:16:12;;;;;;;3.42;1.65;;;;;;;20.43;93.32;97886.34;4946098;28;103676;-75
2021/07/13 03:18:40;;;;;;;2.70;1.70;;;;;;;20.51;92.89;97870.94;4944143;28;103134;-75
2021/07/13 03:21:10;;;;;;;4.80;2.17;;;;;;;20.30;92.72;97864.75;4944557;28;103327;-76
2021/07/13 03:23:40;;;;;;;3.03;1.63;;;;;;;20.39;93.86;97848.34;4942277;28;103770;-76
2021/07/13 03:26:10;;;;;;;2.13;1.50;;;;;;;20.47;93.72;97850.03;4943286;28;103437;-75
2021/07/13 03:28:40;;;;;;;3.03;1.92;;;;;;;20.41;93.00;97830.19;4935845;28;103099;-74
2021/07/13 03:31:11;;;;;;;3.13;1.67;;;;;;;20.43;95.01;97819.28;4936821;28;104271;-74
2021/07/13 03:33:40;;;;;;;2.33;1.85;;;;;;;20.49;93.37;97811.28;4943791;28;103967;-74
2021/07/13 03:36:08;;;;;;;2.22;1.98;;;;;;;20.51;93.40;97803.88;4943915;28;103805;-75
2021/07/13 03:38:36;;;;;;;2.20;1.80;;;;;;;20.68;93.42;97812.47;4942430;28;103521;-75
2021/07/13 03:41:06;;;;;;;4.27;2.70;;;;;;;20.21;95.94;97819.25;4944038;28;103089;-75
2021/07/13 03:43:34;;;;;;;6.30;4.30;;;;;;;19.64;99.26;97810.44;4943456;28;103810;-74
2021/07/13 03:46:02;;;;;;;2.20;2.00;;;;;;;20.10;98.96;97806.38;4941403;28;103255;-76
2021/07/13 03:48:32;;;;;;;2.80;2.60;;;;;;;20.34;97.49;97807.03;4947830;28;103240;-75
2021/07/13 03:51:00;;;;;;;2.20;1.93;;;;;;;20.59;95.71;97808.25;4944218;28;103392;-76
2021/07/13 03:53:28;;;;;;;3.70;2.70;;;;;;;20.44;96.26;97808.34;4943278;28;103737;-76
2021/07/13 03:55:56;;;;;;;4.55;3.63;;;;;;;20.43;96.29;97806.72;4955490;28;103111;-76
2021/07/13 03:58:24;;;;;;;2.92;2.72;;;;;;;20.58;95.95;97803.91;4950014;28;103041;-74
2021/07/13 04:00:52;;;;;;;2.35;2.25;;;;;;;20.73;95.03;97802.81;4952176;28;103129;-75
2021/07/13 04:03:20;;;;;;;7.20;4.77;;;;;;;20.40;95.98;97800.88;4947404;28;104895;-78
2021/07/13 04:05:50;;;;;;;7.87;5.10;;;;;;;19.91;99.25;97796.28;4926778;28;103548;-79
2021/07/13 04:08:18;;;;;;;5.93;4.40;;;;;;;19.85;99.81;97791.69;4932679;28;103069;-76
2021/07/13 04:10:46;;;;;;;3.30;3.00;;;;;;;20.05;99.97;97802.59;4914868;28;103079;-80
2021/07/13 04:13:14;;;;;;;4.45;3.88;;;;;;;20.09;97.85;97804.72;4952632;28;103964;-76
2021/07/13 04:15:43;;;;;;;5.07;4.57;;;;;;;19.94;98.34;97795.91;4966805;28;103298;-77
2021/07/13 04:18:11;;;;;;;5.00;4.50;;;;;;;19.89;99.42;97792.97;4966842;28;102762;-76
2021/07/13 04:20:39;;;;;;;3.47;3.17;;;;;;;20.05;100.00;97797.25;4942364;28;103038;-77
2021/07/13 04:23:08;;;;;;;6.33;5.40;;;;;;;19.84;100.00;97795.41;4928921;28;103979;-77
2021/07/13 04:25:36;;;;;;;4.93;4.50;;;;;;;19.99;100.00;97796.16;4942335;28;110878;-78
2021/07/13 04:28:05;;;;;;;4.70;4.20;;;;;;;20.01;100.00;97786.09;4950675;28;102923;-79
2021/07/13 04:30:36;;;;;;;4.87;4.43;;;;;;;20.10;98.62;97792.97;4952002;28;103737;-77
2021/07/13 04:33:07;;;;;;;4.03;3.42;;;;;;;20.20;98.41;97785.44;4972326;28;103627;-79
2021/07/13 04:35:35;;;;;;;5.85;4.35;;;;;;;20.17;98.39;97780.47;4953076;28;104407;-79
2021/07/13 04:38:03;;;;;;;4.45;4.05;;;;;;;20.09;100.00;97777.91;4925879;28;103175;-79
2021/07/13 04:40:32;;;;;;;3.13;2.90;;;;;;;20.44;97.67;97765.44;4951524;28;103202;-77
2021/07/13 04:43:00;;;;;;;4.78;4.38;;;;;;;20.11;98.54;97759.78;4950619;28;103377;-77
2021/07/13 04:45:28;;;;;;;2.90;2.70;;;;;;;20.52;97.44;97756.41;4945766;28;105974;-77
2021/07/13 04:47:56;;;;;;;2.03;1.90;;;;;;;20.81;96.16;97778.50;4945782;28;102848;-77
2021/07/13 04:50:24;;;;;;;3.47;3.17;;;;;;;20.99;94.75;97786.03;4950841;28;103179;-77
2021/07/13 04:52:52;;;;;;;3.00;2.80;;;;;;;21.01;94.43;97800.09;4960908;28;105380;-76
2021/07/13 04:55:20;;;;;;;3.37;3.07;;;;;;;20.98;94.71;97803.16;4935446;28;103386;-76
2021/07/13 04:57:49;;;;;;;3.15;2.88;;;;;;;21.05;94.47;97801.31;4946379;28;102910;-76
2021/07/13 05:00:17;;;;;;;4.07;3.67;;;;;;;20.91;94.55;97794.25;4946837;28;103124;-76
2021/07/13 05:02:46;;;;;;;3.55;2.75;;;;;;;20.59;96.52;97794.84;4946978;28;103832;-76
2021/07/13 05:05:15;;;;;;;2.45;2.25;;;;;;;20.49;96.63;97789.81;4950431;28;104077;-75
2021/07/13 05:07:45;;;;;;;2.83;2.17;;;;;;;20.19;98.80;97791.81;4948162;28;102994;-75
2021/07/13 05:10:14;;;;;;;4.28;2.53;;;;;;;20.11;98.96;97793.78;4947945;28;103276;-74
2021/07/13 05:12:44;;;;;;;2.60;1.48;;;;;;;20.13;99.96;97789.91;4946151;28;104189;-75
2021/07/13 05:15:15;;;;;;;1.88;1.65;;;;;;;20.08;98.29;97792.34;4947009;28;104039;-76
2021/07/13 05:17:43;;;;;;;1.83;1.73;;;;;;;20.14;99.02;97804.13;4947024;28;102686;-76
2021/07/13 05:20:14;;;;;;;1.55;1.40;;;;;;;20.18;99.08;97792.81;4946085;28;103118;-78
2021/07/13 05:22:43;;;;;;;1.77;1.30;;;;;;;20.17;99.25;97799.22;4944072;28;104661;-85
2021/07/13 05:25:14;;;;;;;2.10;1.73;;;;;;;20.10;97.88;97801.00;4947374;28;104343;-85
2021/07/13 05:27:43;;;;;;;1.73;1.63;;;;;;;20.22;97.75;97791.44;4944191;28;103575;-78
2021/07/13 05:30:14;;;;;;;2.25;1.50;;;;;;;20.28;98.00;97791.69;4954821;28;103153;-76
2021/07/13 05:32:42;;;;;;;1.40;1.20;;;;;;;20.41;97.00;97787.28;4948081;28;103373;-78
2021/07/13 05:35:11;;;;;;;2.22;1.70;;;;;;;20.31;96.72;97784.09;4951158;28;104839;-80
2021/07/13 05:37:39;;;;;;;2.65;1.52;;;;;;;20.23;96.95;97785.06;4958523;28;103069;-79
2021/07/13 05:40:08;;;;;;;1.63;1.50;;;;;;;20.48;96.72;97779.28;4947471;28;103017;-79
2021/07/13 05:42:36;;;;;;;1.55;1.45;;;;;;;20.55;96.82;97772.94;4946348;28;103466;-78
2021/07/13 05:45:07;;;;;;;3.03;2.50;;;;;;;20.19;97.34;97774.88;4926188;28;105958;-78
2021/07/13 05:47:36;;;;;;;2.10;1.67;;;;;;;20.36;98.31;97772.78;4942467;28;102512;-78
2021/07/13 05:50:05;;;;;;;1.50;1.40;;;;;;;20.41;97.09;97768.50;4947772;28;102929;-80
2021/07/13 05:52:34;;;;;;;1.48;1.30;;;;;;;20.48;96.61;97771.25;4945037;28;105118;-78
2021/07/13 05:55:02;;;;;;;2.50;2.15;;;;;;;20.20;97.60;97769.34;4946083;28;104160;-80
2021/07/13 05:57:30;;;;;;;2.33;1.80;;;;;;;20.07;99.24;97765.72;4945785;28;102584;-78
2021/07/13 05:59:58;;;;;;;1.95;1.52;;;;;;;20.19;99.49;97777.56;4929171;28;102702;-79
2021/07/13 06:02:27;;;;;;;1.92;1.73;;;;;;;20.33;99.70;97783.91;4940303;28;103717;-78
2021/07/13 06:04:57;;;;;;;1.83;1.48;;;;;;;20.39;98.53;97780.44;4946107;28;103401;-78
2021/07/13 06:07:25;;;;;;;1.67;1.48;;;;;;;20.44;98.36;97792.25;4946431;28;102645;-80
2021/07/13 06:09:54;;;;;;;3.80;2.05;;;;;;;20.37;98.11;97796.75;4945364;28;102936;-77
2021/07/13 06:12:22;;;;;;;2.70;2.22;;;;;;;20.32;99.53;97807.22;4944190;28;105007;-77
2021/07/13 06:14:50;;;;;;;4.00;2.08;;;;;;;20.30;98.83;97811.09;4945420;28;104720;-77
2021/07/13 06:17:22;;;;;;;3.30;2.30;;;;;;;20.29;99.32;97822.88;4946723;28;102471;-79
2021/07/13 06:19:49;;;;;;;4.32;2.00;;;;;;;20.27;99.20;97833.78;4944894;28;102811;-78
2021/07/13 06:22:19;;;;;;;6.43;3.40;;;;;;;20.07;99.43;97816.66;4945551;28;103851;-79
2021/07/13 06:24:47;;;;;;;2.75;2.00;;;;;;;20.06;99.52;97804.28;4944952;28;104023;-78
2021/07/13 06:27:15;;;;;;;2.83;2.50;;;;;;;19.79;100.00;97808.53;4944733;28;103162;-77
2021/07/13 06:29:43;;;;;;;2.50;2.25;;;;;;;19.95;99.91;97819.03;4955038;28;102794;-78
2021/07/13 06:32:11;;;;;;;2.28;2.00;;;;;;;20.06;99.52;97821.19;4945496;28;103985;-78
2021/07/13 06:34:39;;;;;;;3.70;2.25;;;;;;;20.13;100.00;97815.88;4955339;28;103975;-79
2021/07/13 06:37:07;;;;;;;2.70;2.40;;;;;;;20.28;100.00;97810.47;4928074;28;103072;-80
2021/07/13 06:39:36;;;;;;;2.38;2.10;;;;;;;20.35;98.66;97804.13;4924045;28;103056;-79
2021/07/13 06:42:05;;;;;;;2.88;2.30;;;;;;;20.45;99.95;97798.44;4924257;28;104210;-81
2021/07/13 06:44:33;;;;;;;3.47;2.85;;;;;;;20.21;99.48;97797.81;4937114;28;103759;-79
2021/07/13 06:47:01;;;;;;;6.60;2.95;;;;;;;20.29;99.56;97804.09;4955255;28;103060;-78
2021/07/13 06:49:29;;;;;;;3.28;2.17;;;;;;;20.37;99.34;97809.31;4929422;28;102971;-79
2021/07/13 06:51:57;;;;;;;3.42;2.50;;;;;;;20.37;100.00;97809.31;4943379;28;105095;-80
2021/07/13 06:54:28;;;;;;;4.97;2.63;;;;;;;20.40;100.00;97819.66;4942911;28;103663;-79
2021/07/13 06:56:58;;;;;;;3.45;2.55;;;;;;;20.24;100.00;97840.34;4943295;28;103083;-80
2021/07/13 06:59:26;;;;;;;5.22;2.15;;;;;;;20.16;100.00;97843.13;4944211;28;103032;-80
2021/07/13 07:01:54;;;;;;;11.63;4.43;;;;;;;20.17;100.00;97843.97;4942010;28;103467;-79
2021/07/13 07:04:23;;;;;;;8.88;3.97;;;;;;;19.97;100.00;97838.41;4911277;28;104769;-80
2021/07/13 07:06:51;;;;;;;4.82;3.00;;;;;;;19.88;100.00;97823.47;4945413;28;103289;-78
2021/07/13 07:09:19;;;;;;;3.72;1.98;;;;;;;20.07;100.00;97811.31;4944220;28;102945;-79
2021/07/13 07:11:47;;;;;;;3.75;2.70;;;;;;;20.05;100.00;97830.25;4937027;28;103921;-80
2021/07/13 07:14:17;;;;;;;8.30;4.22;;;;;;;20.01;100.00;97841.56;4944673;28;103243;-79
2021/07/13 07:16:46;;;;;;;2.92;2.35;;;;;;;19.94;100.00;97848.69;4945736;28;102559;-79
2021/07/13 07:19:14;;;;;;;4.65;3.22;;;;;;;19.94;100.00;97844.16;4945579;28;103236;-79
2021/07/13 07:21:42;;;;;;;3.22;2.28;;;;;;;20.03;100.00;97839.50;4945870;28;104761;-79
2021/07/13 07:24:10;;;;;;;4.25;2.50;;;;;;;20.08;100.00;97856.69;4948133;28;103333;-78
2021/07/13 07:26:38;;;;;;;5.25;3.22;;;;;;;20.04;100.00;97857.25;4946735;28;102948;-79
2021/07/13 07:29:06;;;;;;;2.90;2.60;;;;;;;20.03;100.00;97853.75;4946664;28;103166;-78
2021/07/13 07:31:35;;;;;;;2.38;1.63;;;;;;;19.94;100.00;97854.03;4948640;28;104419;-80
2021/07/13 07:34:04;;;;;;;3.53;2.38;;;;;;;19.95;100.00;97850.34;4948089;28;103749;-79
2021/07/13 07:36:32;;;;;;;4.80;2.47;;;;;;;19.75;100.00;97842.09;4952589;28;102913;-79
2021/07/13 07:39:00;;;;;;;2.90;1.95;;;;;;;19.86;100.00;97840.75;4968709;28;102973;-80
2021/07/13 07:41:28;;;;;;;3.55;1.77;;;;;;;19.81;100.00;97848.53;4967263;28;103947;-78
2021/07/13 07:43:56;;;;;;;3.55;2.00;;;;;;;19.82;100.00;97845.66;4936421;28;103708;-79
2021/07/13 07:46:24;;;;;;;3.47;2.00;;;;;;;19.76;100.00;97830.34;4946593;28;102949;-79
2021/07/13 07:48:53;;;;;;;2.97;1.63;;;;;;;19.80;100.00;97825.44;4950590;28;103519;-80
2021/07/13 07:51:22;;;;;;;1.98;1.42;;;;;;;19.70;100.00;97830.28;4944729;28;104935;-78
2021/07/13 07:53:50;;;;;;;1.40;1.30;;;;;;;19.82;100.00;97842.16;4941040;28;103244;-80
2021/07/13 07:56:18;;;;;;;2.70;1.80;;;;;;;19.82;100.00;97861.75;4967894;28;102912;-78
2021/07/13 07:58:46;;;;;;;2.35;1.65;;;;;;;19.81;100.00;97862.78;4948794;28;103155;-78
2021/07/13 08:01:14;;;;;;;2.33;1.40;;;;;;;19.89;100.00;97859.97;4920351;28;106568;-79
2021/07/13 08:03:42;;;;;;;1.77;1.48;;;;;;;19.92;100.00;97856.91;4948994;28;108796;-80
2021/07/13 08:06:11;;;;;;;3.72;3.40;;;;;;;20.36;100.00;97847.88;4967139;28;103441;-80
2021/07/13 08:08:39;;;;;;;5.07;2.53;;;;;;;20.69;97.76;97839.09;4951398;28;102838;-78
2021/07/13 08:11:07;;;;;;;4.47;2.83;;;;;;;20.29;99.91;97826.38;4966668;28;104037;-78
2021/07/13 08:13:35;;;;;;;3.47;2.85;;;;;;;20.18;100.00;97841.09;4949950;28;105422;-81
2021/07/13 08:16:04;;;;;;;2.95;2.33;;;;;;;20.36;100.00;97839.84;4938555;28;102658;-80
2021/07/13 08:18:32;;;;;;;2.80;2.50;;;;;;;20.43;100.00;97832.69;4947081;28;103386;-79
2021/07/13 08:21:00;;;;;;;3.45;2.30;;;;;;;20.48;100.00;97843.66;4947139;28;106349;-78
2021/07/13 08:23:30;;;;;;;4.07;3.15;;;;;;;20.37;100.00;97855.75;4947634;28;103918;-80
2021/07/13 08:25:58;;;;;;;6.47;3.25;;;;;;;20.30;100.00;97854.00;4938946;28;102893;-80
2021/07/13 08:28:26;;;;;;;6.65;3.80;;;;;;;20.13;100.00;97850.72;4956719;28;103144;-79
2021/07/13 08:30:54;;;;;;;5.00;3.50;;;;;;;20.14;100.00;97845.19;4946633;28;104544;-79
2021/07/13 08:33:22;;;;;;;4.93;3.50;;;;;;;20.21;100.00;97839.88;4946597;28;110518;-79
2021/07/13 08:35:50;;;;;;;3.25;2.40;;;;;;;20.37;100.00;97838.81;4945619;28;104444;-81
2021/07/13 08:38:18;;;;;;;3.60;3.30;;;;;;;20.55;100.00;97839.19;4966815;28;103414;-79
2021/07/13 08:40:48;;;;;;;4.88;4.25;;;;;;;20.44;100.00;97839.69;4965731;28;105055;-79
2021/07/13 08:43:17;;;;;;;4.60;3.42;;;;;;;20.42;100.00;97841.75;4953770;28;109484;-82
2021/07/13 08:45:47;;;;;;;4.68;3.92;;;;;;;20.24;100.00;97848.41;4947785;28;103203;-79
2021/07/13 08:48:15;;;;;;;5.05;4.55;;;;;;;19.99;100.00;97849.75;4947997;28;103567;-79
2021/07/13 08:50:43;;;;;;;3.28;2.90;;;;;;;19.80;100.00;97852.22;4959481;28;103965;-79
2021/07/13 08:53:11;;;;;;;4.22;2.90;;;;;;;19.83;100.00;97847.31;4930087;28;103773;-79
2021/07/13 08:55:39;;;;;;;2.53;1.90;;;;;;;19.51;100.00;97845.06;4941876;28;102593;-83
2021/07/13 08:58:14;;;;;;;1.88;1.60;;;;;;;19.37;100.00;97848.59;4951036;28;102754;-81
2021/07/13 09:00:42;;;;;;;2.65;1.40;;;;;;;19.46;100.00;97868.91;4928314;28;105179;-79
2021/07/13 09:03:12;;;;;;;2.65;1.02;;;;;;;19.18;100.00;97857.19;4938237;28;103742;-80
2021/07/13 09:05:45;;;;;;;2.00;0.90;;;;;;;19.06;100.00;97870.19;4964480;28;102979;-80
2021/07/13 09:08:15;;;;;;;1.10;1.00;;;;;;;19.15;100.00;97878.97;4936723;28;103022;-81
2021/07/13 09:14:27;;;;;;;2.03;0.80;;;;;;;19.69;98.34;97883.03;4927581;28;103724;-78
2021/07/13 09:17:39;;;;;;;1.25;1.05;;;;;;;19.80;95.48;97884.38;4950778;28;102588;-78
2021/07/13 09:20:16;;;;;;;1.20;0.57;;;;;;;19.84;94.01;97889.19;4952900;28;102534;-78
2021/07/13 09:28:11;;;;;;;0.60;0.43;;;;;;;19.91;94.70;97908.84;4947164;28;104220;-78
2021/07/13 09:31:16;;;;;;;0.90;0.40;;;;;;;19.35;96.55;97905.00;4949703;28;102728;-78
2021/07/13 09:33:44;;;;;;;1.30;0.35;;;;;;;19.36;96.94;97919.25;4949237;28;103188;-79
2021/07/13 10:43:18;;;;;;;1.40;0.60;;;;;;;18.84;95.91;97949.53;4910976;28;103753;-78
2021/07/13 10:45:49;;;;;;;0.30;0.30;;;;;;;18.80;97.68;97988.38;4905507;28;103928;-80
2021/07/13 10:48:20;;;;;;;0.63;0.38;;;;;;;18.65;98.06;98011.56;4887093;28;103792;-77
2021/07/13 10:50:57;;;;;;;1.75;0.40;;;;;;;18.12;98.89;98019.53;4868785;28;102958;-76
2021/07/13 10:53:30;;;;;;;0.50;0.45;;;;;;;18.13;99.79;98006.00;4885540;28;103268;-75
2021/07/13 10:56:07;;;;;;;1.15;0.40;;;;;;;18.27;98.37;98012.44;4877379;28;104645;-77
2021/07/13 10:58:58;;;;;;;3.75;0.57;;;;;;;18.36;98.82;98033.59;4889625;28;104213;-76
2021/07/13 11:01:32;;;;;;;2.42;0.40;;;;;;;18.22;98.39;98044.19;4873048;28;103364;-76
2021/07/13 11:04:09;;;;;;;1.77;0.60;;;;;;;18.24;97.93;98044.88;4877256;28;103375;-74
2021/07/13 11:06:59;;;;;;;1.67;0.50;;;;;;;18.36;97.38;98038.09;4878529;28;104463;-73
2021/07/13 11:09:38;;;;;;;0.40;0.40;;;;;;;18.39;96.60;98011.00;4864083;28;105115;-73
2021/07/13 11:12:27;;;;;;;0.98;0.50;;;;;;;18.25;98.34;97958.28;4854153;28;103229;-75
2021/07/13 11:15:01;;;;;;;1.90;0.80;;;;;;;18.12;98.90;97939.34;4891901;28;102951;-75
2021/07/13 11:17:32;;;;;;;1.58;0.50;;;;;;;18.58;94.15;97966.97;4883509;28;105239;-74
2021/07/13 11:20:09;;;;;;;1.33;0.50;;;;;;;18.95;96.50;97999.94;4880837;28;106319;-75
2021/07/13 11:22:42;;;;;;;1.80;0.50;;;;;;;18.99;96.46;98020.00;4883763;28;102745;-78
2021/07/13 11:25:34;;;;;;;1.15;0.50;;;;;;;19.02;95.58;98024.16;4884596;28;103174;-76
2021/07/13 11:28:06;;;;;;;0.75;0.40;;;;;;;18.89;96.18;98035.44;4875501;28;105029;-77
2021/07/13 11:30:36;;;;;;;0.50;0.40;;;;;;;18.86;94.81;98025.09;4887002;28;103905;-76
2021/07/13 11:33:06;;;;;;;0.50;0.50;;;;;;;18.81;93.73;98032.84;4883320;28;103273;-77
2021/07/13 11:35:38;;;;;;;0.30;0.30;;;;;;;18.77;94.30;98039.56;4853718;28;103511;-74
2021/07/13 11:38:07;;;;;;;0.57;0.40;;;;;;;18.82;94.41;98045.22;4894847;28;110591;-76
2021/07/13 11:40:35;;;;;;;0.52;0.40;;;;;;;18.95;94.04;98050.78;4892588;28;104203;-76
2021/07/13 11:43:03;;;;;;;1.77;0.40;;;;;;;18.63;96.14;98051.03;4883467;28;103574;-78
2021/07/13 11:45:32;;;;;;;1.23;0.43;;;;;;;18.57;95.55;98065.09;4881235;28;103098;-76
2021/07/13 11:48:07;;;;;;;1.13;0.40;;;;;;;18.67;94.66;98078.25;4875399;28;103973;-75
2021/07/13 11:50:36;;;;;;;2.83;0.32;;;;;;;18.63;94.27;98077.78;4864566;28;105860;-74
2021/07/13 11:53:21;;;;;;;2.03;0.50;;;;;;;18.70;95.31;98078.72;4882081;28;104435;-74
2021/07/13 11:55:57;;;;;;;2.08;0.40;;;;;;;18.95;94.94;98077.56;4886198;28;103222;-76
2021/07/13 11:58:26;;;;;;;0.77;0.70;;;;;;;18.60;95.15;98064.75;4851305;28;105428;-74
2021/07/13 12:00:55;;;;;;;0.60;0.50;;;;;;;18.77;95.38;98065.50;4884876;28;103901;-74
2021/07/13 12:03:28;;;;;;;0.82;0.45;;;;;;;18.84;95.10;98077.97;4870054;28;103539;-73
2021/07/13 12:06:10;;;;;;;1.55;0.50;;;;;;;18.91;94.98;98076.25;4892652;28;103250;-73
2021/07/13 12:08:38;;;;;;;0.47;0.47;;;;;;;18.94;95.11;98065.22;4896847;28;105612;-76
2021/07/13 12:11:06;;;;;;;1.92;0.60;;;;;;;18.87;94.75;98053.53;4905338;28;102844;-79
2021/07/13 12:13:38;;;;;;;1.10;0.50;;;;;;;18.77;93.93;98050.28;4888642;28;103095;-76
2021/07/13 12:16:18;;;;;;;0.68;0.40;;;;;;;19.06;93.06;98055.72;4888559;28;102773;-76
2021/07/13 12:18:48;;;;;;;1.40;0.40;;;;;;;19.09;93.91;98051.84;4888753;28;103733;-76
2021/07/13 12:21:16;;;;;;;1.00;0.30;;;;;;;19.24;92.75;98058.09;4895094;28;103778;-76
2021/07/13 12:23:59;;;;;;;0.43;0.40;;;;;;;19.26;91.83;98079.31;4890416;28;102797;-74
2021/07/13 12:26:32;;;;;;;0.98;0.52;;;;;;;19.47;94.21;98076.84;4906863;28;103433;-76
2021/07/13 12:29:05;;;;;;;0.45;0.30;;;;;;;19.57;92.17;98093.47;4920945;28;103917;-76
2021/07/13 12:31:36;;;;;;;1.52;0.30;;;;;;;19.76;91.81;98092.13;4906070;28;104716;-75
2021/07/13 12:34:16;;;;;;;0.47;0.40;;;;;;;19.95;92.71;98087.06;4894905;28;103008;-75
2021/07/13 12:36:45;;;;;;;0.98;0.85;;;;;;;19.94;88.75;98101.47;4880620;28;103229;-76
2021/07/13 12:39:17;;;;;;;1.45;0.50;;;;;;;19.90;88.57;98116.25;4899282;28;103040;-77
2021/07/13 12:41:46;;;;;;;0.70;0.70;;;;;;;19.74;90.86;98107.56;4876428;28;105996;-77
2021/07/13 12:44:31;;;;;;;2.50;0.50;;;;;;;19.58;89.58;98105.88;4880494;28;103317;-75
2021/07/13 12:47:20;;;;;;;1.40;1.10;;;;;;;19.46;90.55;98123.38;4865613;28;103248;-77
2021/07/13 12:50:21;;;;;;;1.08;0.60;;;;;;;19.36;88.42;98122.78;4882790;28;103300;-75
2021/07/13 12:52:55;;;;;;;1.05;0.50;;;;;;;19.33;92.34;98123.13;4878537;28;103808;-75
2021/07/13 12:55:30;;;;;;;0.90;0.65;;;;;;;19.68;88.26;98122.50;4879075;28;105154;-75
2021/07/13 12:58:09;;;;;;;0.60;0.55;;;;;;;19.46;89.38;98134.09;4879346;28;103077;-76
2021/07/13 13:00:39;;;;;;;0.57;0.52;;;;;;;19.65;91.24;98133.59;4886100;28;106133;-76
2021/07/13 13:03:09;;;;;;;0.70;0.50;;;;;;;19.62;89.48;98128.63;4885473;28;105393;-76
2021/07/13 13:05:41;;;;;;;0.50;0.50;;;;;;;20.07;91.68;98127.66;4884212;28;105578;-75
2021/07/13 13:08:12;;;;;;;0.85;0.40;;;;;;;19.99;84.65;98136.59;4884154;28;103107;-75
2021/07/13 13:10:42;;;;;;;1.00;0.68;;;;;;;19.95;85.95;98153.25;4855373;28;106820;-75
2021/07/13 13:13:12;;;;;;;0.73;0.60;;;;;;;20.05;84.79;98141.25;4893745;28;103214;-75
2021/07/13 13:15:40;;;;;;;0.80;0.50;;;;;;;20.31;84.41;98135.47;4889468;28;103008;-75
2021/07/13 13:18:08;;;;;;;1.60;0.60;;;;;;;20.00;83.21;98132.91;4902587;28;102729;-75
2021/07/13 13:20:37;;;;;;;2.42;0.60;;;;;;;19.09;88.40;98122.28;4904037;28;110011;-75
2021/07/13 13:23:11;;;;;;;1.30;1.20;;;;;;;19.25;90.84;98142.78;4889690;28;103983;-75
2021/07/13 13:25:40;;;;;;;0.75;0.73;;;;;;;19.81;88.53;98146.84;4872658;28;102632;-75
2021/07/13 13:28:10;;;;;;;1.33;0.73;;;;;;;19.80;86.65;98139.81;4889291;28;102974;-75
2021/07/13 13:30:38;;;;;;;4.43;0.68;;;;;;;19.34;85.78;98130.16;4887940;28;103885;-75
2021/07/13 13:33:07;;;;;;;1.95;0.60;;;;;;;19.51;85.59;98131.69;4887984;28;110286;-75
2021/07/13 13:35:42;;;;;;;1.30;0.50;;;;;;;19.78;83.97;98127.63;4889554;28;103062;-75
2021/07/13 13:38:24;;;;;;;0.77;0.50;;;;;;;19.68;85.03;98127.88;4891327;28;102750;-75
2021/07/13 13:40:52;;;;;;;0.55;0.30;;;;;;;19.72;83.08;98128.34;4896071;28;103932;-75
2021/07/13 13:43:20;;;;;;;1.80;0.80;;;;;;;19.76;82.99;98130.47;4871170;28;105482;-75
2021/07/13 13:45:49;;;;;;;1.45;0.52;;;;;;;19.65;83.37;98137.09;4888964;28;102887;-75
2021/07/13 13:48:17;;;;;;;0.50;0.40;;;;;;;20.01;82.72;98144.47;4889030;28;103354;-75
2021/07/13 13:50:45;;;;;;;0.95;0.60;;;;;;;20.23;84.21;98163.19;4888771;28;104468;-75
2021/07/13 13:53:35;;;;;;;0.65;0.63;;;;;;;19.44;83.92;98144.16;4888866;28;103820;-75
2021/07/13 13:56:06;;;;;;;0.40;0.40;;;;;;;19.79;85.54;98135.47;4888415;28;103048;-75
2021/07/13 13:58:34;;;;;;;0.63;0.40;;;;;;;20.03;86.30;98137.09;4872583;28;102937;-75
2021/07/13 14:01:04;;;;;;;0.68;0.40;;;;;;;20.18;86.30;98146.78;4888808;28;104345;-75
2021/07/13 14:03:33;;;;;;;0.47;0.43;;;;;;;20.29;86.02;98152.75;4888551;28;103516;-76
2021/07/13 14:06:01;;;;;;;0.75;0.40;;;;;;;20.45;86.95;98136.47;4888528;28;103044;-75
2021/07/13 14:08:31;;;;;;;0.50;0.50;;;;;;;20.61;86.63;98136.25;4887411;28;103225;-75
2021/07/13 14:11:02;;;;;;;2.25;1.17;;;;;;;20.54;84.64;98140.72;4887732;28;104652;-76
2021/07/13 14:13:30;;;;;;;0.65;0.50;;;;;;;20.81;82.02;98143.53;4871071;28;105425;-77
2021/07/13 14:15:59;;;;;;;0.80;0.50;;;;;;;20.73;82.00;98142.81;4888487;28;103194;-75
2021/07/13 14:18:28;;;;;;;0.47;0.47;;;;;;;20.83;80.86;98136.13;4887726;28;103207;-74
2021/07/13 14:20:58;;;;;;;1.42;0.50;;;;;;;21.13;76.76;98142.28;4886306;28;109346;-74
2021/07/13 14:23:27;;;;;;;2.28;0.88;;;;;;;21.09;80.39;98140.16;4888017;28;105233;-75
2021/07/13 14:25:55;;;;;;;1.10;0.70;;;;;;;20.91;76.74;98134.34;4883862;28;103243;-75
2021/07/13 14:28:25;;;;;;;1.48;0.68;;;;;;;21.00;77.45;98143.94;4896238;28;102837;-74
2021/07/13 14:30:53;;;;;;;2.72;0.75;;;;;;;20.99;75.40;98135.06;4907003;28;103870;-74
2021/07/13 14:33:24;;;;;;;2.72;0.82;;;;;;;20.92;74.89;98120.72;4882499;28;104950;-77
2021/07/13 14:35:54;;;;;;;1.65;0.98;;;;;;;21.29;74.64;98120.53;4838064;28;102913;-74
2021/07/13 14:38:23;;;;;;;0.85;0.80;;;;;;;21.14;75.72;98125.13;4907074;28;103166;-75
2021/07/13 14:40:52;;;;;;;0.68;0.50;;;;;;;21.29;76.20;98125.91;4873516;28;106837;-74
2021/07/13 14:43:20;;;;;;;3.65;0.70;;;;;;;20.77;77.25;98120.75;4887226;28;103851;-75
2021/07/13 14:45:51;;;;;;;0.73;0.57;;;;;;;20.71;79.14;98131.44;4902794;28;103239;-76
2021/07/13 14:48:19;;;;;;;0.80;0.75;;;;;;;20.88;80.42;98121.31;4904899;28;103161;-78
2021/07/13 14:50:49;;;;;;;1.52;0.80;;;;;;;20.23;84.52;98106.88;4898613;28;106722;-76
2021/07/13 14:53:19;;;;;;;0.63;0.55;;;;;;;20.42;83.31;98104.63;4885468;28;110804;-76
2021/07/13 14:55:48;;;;;;;0.75;0.60;;;;;;;20.50;80.15;98112.59;4876423;28;103304;-77
2021/07/13 14:58:17;;;;;;;1.83;1.00;;;;;;;20.33;78.27;98109.28;4877831;28;103191;-79
2021/07/13 15:00:46;;;;;;;2.05;0.70;;;;;;;20.40;79.82;98106.69;4871963;28;103594;-79
2021/07/13 15:03:16;;;;;;;3.33;0.82;;;;;;;20.06;77.99;98105.38;4878176;28;103980;-75
2021/07/13 15:05:45;;;;;;;3.08;0.90;;;;;;;20.16;79.34;98111.28;4853077;28;103308;-81
2021/07/13 15:08:13;;;;;;;0.80;0.80;;;;;;;20.20;78.88;98111.75;4853798;28;103305;-85
2021/07/13 15:10:43;;;;;;;2.17;0.98;;;;;;;19.92;79.63;98114.25;4861842;28;103861;-76
2021/07/13 15:13:12;;;;;;;0.73;0.60;;;;;;;19.55;81.09;98127.66;4855330;28;106107;-82
2021/07/13 15:15:41;;;;;;;3.03;1.00;;;;;;;19.75;81.06;98119.94;4886775;28;103570;-81
2021/07/13 15:18:09;;;;;;;1.73;0.70;;;;;;;19.77;80.21;98117.91;4897353;28;104125;-82
2021/07/13 15:20:40;;;;;;;1.50;0.70;;;;;;;19.79;80.24;98119.38;4886444;28;104569;-82
2021/07/13 15:23:09;;;;;;;0.90;0.80;;;;;;;19.65;80.26;98121.03;4893054;28;104285;-80
2021/07/13 15:25:37;;;;;;;2.15;0.90;;;;;;;19.62;80.45;98128.63;4882425;28;103050;-83
2021/07/13 15:28:06;;;;;;;1.58;0.70;;;;;;;19.62;81.00;98128.63;4882073;28;103063;-78
2021/07/13 15:30:34;;;;;;;1.15;1.05;;;;;;;19.58;82.58;98112.06;4873472;28;103767;-79
2021/07/13 15:33:07;;;;;;;0.88;0.85;;;;;;;19.73;81.98;98109.41;4876541;28;104217;-82
2021/07/13 15:35:36;;;;;;;1.85;0.90;;;;;;;19.67;82.20;98116.34;4890840;28;103718;-82